Time;durP1;ratioP1;P1;durP2;ratioP2;P2;SDS_P1;SDS_P2;PMS_P1;PMS_P2;Temp;Humidity;BMP_temperature;BMP_pressure;BME280_temperature;BME280_humidity;BME280_pressure;Samples;Min_cycle;Max_cycle;Signal;HPM_P1;HPM_P2
2023/10/10 00:01:43;;;;;;;9.07;3.67;;;15.40;99.90;;;;;;5069962;28;20952;-65
2023/10/10 00:04:11;;;;;;;10.40;3.85;;;15.40;99.90;;;;;;5070631;28;20606;-65
2023/10/10 00:06:40;;;;;;;8.70;3.95;;;15.40;99.90;;;;;;5097134;27;20554;-69
2023/10/10 00:09:12;;;;;;;9.63;4.00;;;15.40;99.90;;;;;;5063629;28;20526;-68
2023/10/10 00:11:45;;;;;;;8.35;3.97;;;15.40;99.90;;;;;;5066338;28;20103;-68
2023/10/10 00:14:22;;;;;;;10.40;3.75;;;15.40;99.90;;;;;;5097659;27;21908;-69
2023/10/10 00:16:48;;;;;;;8.98;3.78;;;15.30;99.90;;;;;;5066981;28;20448;-69
2023/10/10 00:19:30;;;;;;;8.75;3.92;;;15.40;99.90;;;;;;5076497;28;20048;-68
2023/10/10 00:21:56;;;;;;;8.00;3.40;;;15.40;99.90;;;;;;5067772;28;20048;-68
2023/10/10 00:24:32;;;;;;;9.95;3.75;;;15.30;99.90;;;;;;5070004;28;20535;-69
2023/10/10 00:27:12;;;;;;;15.45;4.15;;;15.40;99.90;;;;;;5068608;28;20048;-68
2023/10/10 00:29:42;;;;;;;8.18;4.25;;;15.40;99.90;;;;;;5070523;28;20048;-68
2023/10/10 00:32:16;;;;;;;9.63;3.75;;;15.40;99.90;;;;;;5052058;28;20137;-68
2023/10/10 00:34:49;;;;;;;7.47;4.22;;;15.40;99.90;;;;;;5068269;28;20072;-69
2023/10/10 00:37:21;;;;;;;7.60;4.25;;;15.40;99.90;;;;;;5105134;27;20131;-70
2023/10/10 00:39:52;;;;;;;8.82;4.07;;;15.40;99.90;;;;;;5070589;28;20056;-69
2023/10/10 00:42:37;;;;;;;8.68;4.03;;;15.40;99.90;;;;;;5072614;28;20162;-68
2023/10/10 00:45:09;;;;;;;8.70;3.90;;;15.40;99.90;;;;;;5069924;28;20073;-69
2023/10/10 00:47:40;;;;;;;7.68;4.38;;;15.40;99.90;;;;;;5070567;28;20186;-69
2023/10/10 00:50:08;;;;;;;10.95;4.05;;;15.40;99.90;;;;;;5068272;28;20044;-65
2023/10/10 00:52:38;;;;;;;8.57;4.18;;;15.40;99.90;;;;;;5070011;28;20052;-66
2023/10/10 00:55:04;;;;;;;12.18;4.63;;;15.40;99.90;;;;;;5068489;28;20071;-66
2023/10/10 00:57:36;;;;;;;9.30;4.22;;;15.40;99.90;;;;;;5072224;28;20048;-65
2023/10/10 01:00:15;;;;;;;8.45;4.07;;;15.40;99.90;;;;;;5070033;28;20691;-65
2023/10/10 01:02:42;;;;;;;9.57;4.40;;;15.40;99.90;;;;;;5085474;28;20451;-66
2023/10/10 01:05:12;;;;;;;9.63;3.85;;;15.40;99.90;;;;;;5076895;28;20044;-65
2023/10/10 01:07:47;;;;;;;10.98;5.32;;;15.40;99.90;;;;;;5050501;28;20062;-65
2023/10/10 01:10:16;;;;;;;7.90;4.18;;;15.40;99.90;;;;;;5052757;28;20082;-69
2023/10/10 01:12:46;;;;;;;8.93;4.53;;;15.40;99.90;;;;;;5073421;28;20051;-68
2023/10/10 01:15:25;;;;;;;8.70;4.60;;;15.40;99.90;;;;;;5053623;28;20165;-69
2023/10/10 01:17:51;;;;;;;9.13;4.28;;;15.40;99.90;;;;;;5052823;28;20067;-69
2023/10/10 01:20:34;;;;;;;10.10;5.03;;;15.40;99.90;;;;;;5066926;28;20086;-69
2023/10/10 01:23:01;;;;;;;12.68;4.95;;;15.40;99.90;;;;;;5084347;28;20040;-69
2023/10/10 01:28:05;;;;;;;10.70;5.78;;;15.40;99.90;;;;;;5072957;28;20048;-69
2023/10/10 01:30:43;;;;;;;11.35;5.57;;;15.40;99.90;;;;;;5083125;28;20084;-68
2023/10/10 01:33:14;;;;;;;10.10;5.05;;;15.40;99.90;;;;;;5083707;28;20135;-69
2023/10/10 01:35:44;;;;;;;9.02;4.60;;;15.40;99.90;;;;;;5075075;28;20048;-69
2023/10/10 01:38:33;;;;;;;10.23;4.82;;;15.40;99.90;;;;;;5068531;28;20048;-69
2023/10/10 01:41:04;;;;;;;8.35;5.47;;;15.40;99.90;;;;;;5070634;28;20077;-69
2023/10/10 01:43:32;;;;;;;;;;;15.40;99.90;;;;;;5059886;28;20302;-69
2023/10/10 01:46:08;;;;;;;9.27;4.65;;;15.40;99.90;;;;;;5066206;28;19935;-69
2023/10/10 01:48:43;;;;;;;10.00;5.80;;;15.40;99.90;;;;;;5079040;28;20113;-69
2023/10/10 01:51:10;;;;;;;12.82;5.93;;;15.40;99.90;;;;;;5071815;28;20194;-68
2023/10/10 01:53:40;;;;;;;11.40;5.65;;;15.40;99.90;;;;;;5057270;28;20051;-69
2023/10/10 01:56:11;;;;;;;11.48;5.45;;;15.40;99.90;;;;;;5085484;28;20441;-69
2023/10/10 01:58:38;;;;;;;9.05;5.60;;;15.40;99.90;;;;;;5073049;28;20056;-68
2023/10/10 02:01:13;;;;;;;12.57;5.38;;;15.40;99.90;;;;;;5083435;28;20044;-68
2023/10/10 02:03:40;;;;;;;12.80;5.40;;;15.40;99.90;;;;;;5070477;28;20441;-69
2023/10/10 02:06:14;;;;;;;12.48;5.35;;;15.40;99.90;;;;;;5068256;28;20047;-69
2023/10/10 02:08:46;;;;;;;11.60;5.30;;;15.40;99.90;;;;;;5090804;28;20047;-66
2023/10/10 02:11:12;;;;;;;11.13;5.13;;;15.30;99.90;;;;;;5071530;28;20101;-66
2023/10/10 02:13:39;;;;;;;8.15;5.07;;;15.30;99.90;;;;;;5070440;28;20051;-65
2023/10/10 02:16:11;;;;;;;11.80;6.00;;;15.30;99.90;;;;;;5077942;28;20037;-66
2023/10/10 02:18:40;;;;;;;10.27;5.22;;;15.30;99.90;;;;;;5066745;28;20452;-66
2023/10/10 02:21:17;;;;;;;8.95;5.60;;;15.30;99.90;;;;;;5069377;28;20040;-65
2023/10/10 02:23:46;;;;;;;10.02;5.15;;;15.30;99.90;;;;;;5087954;28;20121;-65
2023/10/10 02:26:35;;;;;;;10.00;5.18;;;15.30;99.90;;;;;;5069197;28;21967;-66
2023/10/10 02:32:08;;;;;;;11.13;6.07;;;15.30;99.90;;;;;;5076618;28;20747;-65
2023/10/10 02:34:36;;;;;;;14.10;6.60;;;15.30;99.90;;;;;;5087518;28;20051;-66
2023/10/10 02:40:05;;;;;;;15.25;5.80;;;15.30;99.90;;;;;;5101778;27;20087;-65
2023/10/10 02:42:33;;;;;;;11.40;5.47;;;15.30;99.90;;;;;;5086778;27;20543;-65
2023/10/10 02:44:59;;;;;;;11.43;6.10;;;15.20;99.90;;;;;;5074399;28;20040;-66
2023/10/10 02:47:32;;;;;;;10.05;5.30;;;15.20;99.90;;;;;;5054653;28;20047;-65
2023/10/10 02:50:10;;;;;;;8.23;5.15;;;15.20;99.90;;;;;;5081993;28;20055;-65
2023/10/10 02:52:39;;;;;;;12.73;6.00;;;15.20;99.90;;;;;;5068025;28;20044;-65
2023/10/10 02:55:22;;;;;;;7.93;4.55;;;15.20;99.90;;;;;;5067272;28;20052;-65
2023/10/10 02:57:48;;;;;;;9.80;5.10;;;15.20;99.90;;;;;;5073402;28;20421;-65
2023/10/10 03:02:55;;;;;;;10.27;5.28;;;15.20;99.90;;;;;;5070741;28;20064;-68
2023/10/10 03:05:39;;;;;;;13.65;6.28;;;15.20;99.90;;;;;;5067579;28;20434;-69
2023/10/10 03:08:18;;;;;;;11.23;5.95;;;15.20;99.90;;;;;;5069022;28;20123;-68
2023/10/10 03:10:54;;;;;;;17.40;6.30;;;15.20;99.90;;;;;;5065236;28;20037;-68
2023/10/10 03:22:31;;;;;;;9.52;6.22;;;15.20;99.90;;;;;;5072383;28;20127;-69
2023/10/10 03:27:00;;;;;;;11.13;5.72;;;15.20;99.90;;;;;;5073843;28;20085;-69
2023/10/10 03:29:46;;;;;;;9.15;5.75;;;15.20;99.90;;;;;;5071806;28;20048;-69
2023/10/10 03:32:47;;;;;;;10.73;5.88;;;15.20;99.90;;;;;;5068181;28;20036;-69
2023/10/10 03:35:33;;;;;;;9.52;6.07;;;15.20;99.90;;;;;;5064584;28;20097;-69
2023/10/10 03:38:25;;;;;;;10.90;5.68;;;15.20;99.90;;;;;;5086564;28;20276;-68
2023/10/10 05:23:30;;;;;;;12.85;6.25;;;15.20;99.90;;;;;;5069970;28;20097;-69
2023/10/10 05:25:15;;;;;;;27.30;14.20;;;15.30;99.90;;;;;;5063080;28;20109;-65
2023/10/10 05:27:43;;;;;;;21.90;13.70;;;15.30;99.90;;;;;;5060755;28;20123;-65
2023/10/10 05:30:25;;;;;;;25.35;14.35;;;15.30;99.90;;;;;;5067214;28;20060;-65
2023/10/10 05:33:04;;;;;;;27.55;15.57;;;15.30;99.90;;;;;;5071212;28;20106;-65
2023/10/10 05:35:37;;;;;;;28.15;17.27;;;15.30;99.90;;;;;;5065294;28;20443;-65
2023/10/10 05:38:04;;;;;;;27.63;16.83;;;15.30;99.90;;;;;;5068370;28;20073;-66
2023/10/10 05:40:33;;;;;;;28.00;16.92;;;15.30;99.90;;;;;;5071440;28;20041;-65
2023/10/10 05:43:03;;;;;;;30.33;17.13;;;15.30;99.90;;;;;;5081556;28;20043;-65
2023/10/10 05:45:29;;;;;;;29.05;18.40;;;15.30;99.90;;;;;;5073461;28;20043;-65
2023/10/10 05:47:55;;;;;;;31.55;17.98;;;15.30;99.90;;;;;;5071265;28;20044;-65
2023/10/10 05:50:22;;;;;;;31.67;19.55;;;15.30;99.90;;;;;;5071180;28;20044;-65
2023/10/10 05:52:48;;;;;;;31.88;19.08;;;15.30;99.90;;;;;;5065911;28;20051;-65
2023/10/10 05:55:15;;;;;;;31.30;19.45;;;15.30;99.90;;;;;;5073346;28;20059;-65
2023/10/10 05:57:41;;;;;;;36.05;20.77;;;15.30;99.90;;;;;;5068861;28;20081;-65
2023/10/10 06:00:12;;;;;;;37.15;20.40;;;15.30;99.90;;;;;;5069633;28;20051;-65
2023/10/10 06:02:41;;;;;;;33.47;19.98;;;15.30;99.90;;;;;;5053705;28;20085;-65
2023/10/10 06:05:08;;;;;;;35.47;20.45;;;15.30;99.90;;;;;;5055999;28;20090;-65
2023/10/10 06:07:37;;;;;;;34.70;21.45;;;15.30;99.90;;;;;;5069437;28;20044;-65
2023/10/10 06:10:06;;;;;;;36.53;21.45;;;15.30;99.90;;;;;;5071498;28;20037;-65
2023/10/10 06:12:36;;;;;;;39.97;22.52;;;15.30;99.90;;;;;;5066003;28;21883;-65
2023/10/10 06:15:05;;;;;;;36.33;22.70;;;15.30;99.90;;;;;;5074656;28;20067;-65
2023/10/10 06:17:34;;;;;;;35.60;22.73;;;15.30;99.90;;;;;;5100771;27;20080;-65
2023/10/10 06:20:01;;;;;;;39.67;24.25;;;15.30;99.90;;;;;;5066499;28;20739;-66
2023/10/10 06:22:29;;;;;;;40.05;23.83;;;15.30;99.90;;;;;;5065873;28;20126;-66
2023/10/10 06:24:58;;;;;;;37.58;22.75;;;15.30;99.90;;;;;;5067341;28;20040;-65
2023/10/10 06:27:32;;;;;;;33.28;21.48;;;15.30;99.90;;;;;;5067290;28;20051;-66
2023/10/10 06:29:58;;;;;;;36.83;22.73;;;15.30;99.90;;;;;;5068189;28;20882;-65
2023/10/10 06:32:31;;;;;;;42.53;22.20;;;15.30;99.90;;;;;;5065756;28;20155;-65
2023/10/10 06:37:45;;;;;;;33.63;21.40;;;15.30;99.90;;;;;;5067053;28;20059;-66
2023/10/10 06:40:11;;;;;;;31.45;20.40;;;15.30;99.90;;;;;;5061942;28;20429;-65
2023/10/10 06:42:38;;;;;;;32.20;20.92;;;15.30;99.90;;;;;;5050289;28;20494;-66
2023/10/10 06:45:08;;;;;;;29.50;19.80;;;15.30;99.90;;;;;;5070803;28;20044;-66
2023/10/10 06:47:34;;;;;;;34.10;20.48;;;15.40;99.90;;;;;;5079080;28;20044;-66
2023/10/10 06:50:01;;;;;;;35.53;20.50;;;15.40;99.90;;;;;;5085382;28;20109;-66
2023/10/10 06:52:27;;;;;;;33.60;19.30;;;15.40;99.90;;;;;;5077711;28;20056;-66
2023/10/10 06:54:56;;;;;;;27.35;18.15;;;15.40;99.90;;;;;;5077572;28;20048;-66
2023/10/10 06:57:35;;;;;;;28.65;18.20;;;15.40;99.90;;;;;;5073129;28;20075;-65
2023/10/10 07:00:17;;;;;;;29.58;17.75;;;15.40;99.90;;;;;;5077200;28;20517;-65
2023/10/10 07:02:48;;;;;;;31.15;17.35;;;15.40;99.90;;;;;;5074058;28;20081;-65
2023/10/10 07:05:20;;;;;;;27.83;17.08;;;15.50;99.90;;;;;;5081635;28;20071;-66
2023/10/10 07:07:53;;;;;;;29.70;16.73;;;15.50;99.90;;;;;;5071683;28;20079;-66
2023/10/10 07:10:25;;;;;;;26.17;17.08;;;15.50;99.90;;;;;;5074089;28;20051;-65
2023/10/10 07:12:58;;;;;;;27.50;17.50;;;15.50;99.90;;;;;;5070868;28;20047;-66
2023/10/10 07:15:34;;;;;;;27.33;16.83;;;15.50;99.90;;;;;;5073391;28;20115;-66
2023/10/10 07:18:13;;;;;;;30.50;16.60;;;15.60;99.90;;;;;;5058976;28;20044;-66
2023/10/10 07:23:37;;;;;;;25.40;16.55;;;15.60;99.90;;;;;;5065336;28;20058;-66
2023/10/10 07:26:23;;;;;;;26.98;16.33;;;15.60;99.90;;;;;;5099866;27;20066;-65
2023/10/10 07:28:52;;;;;;;27.35;16.52;;;15.60;99.90;;;;;;5082857;27;20135;-66
2023/10/10 07:31:23;;;;;;;23.58;17.08;;;15.60;99.90;;;;;;5067712;28;21184;-66
2023/10/10 07:34:03;;;;;;;25.98;17.13;;;15.60;99.90;;;;;;5071212;28;20052;-66
2023/10/10 07:36:29;;;;;;;25.45;16.95;;;15.70;99.90;;;;;;5074393;28;20052;-65
2023/10/10 07:39:32;;;;;;;31.73;19.27;;;15.70;99.90;;;;;;5104159;27;20048;-66
2023/10/10 07:41:45;;;;;;;29.85;18.52;;;15.70;99.90;;;;;;5100269;27;20419;-65
2023/10/10 07:44:22;;;;;;;40.63;21.38;;;15.70;99.90;;;;;;5103656;27;20054;-66
2023/10/10 07:47:19;;;;;;;37.25;21.73;;;15.70;99.90;;;;;;5070689;28;20044;-66
2023/10/10 07:49:34;;;;;;;43.17;24.73;;;15.80;99.90;;;;;;5071523;28;20048;-66
2023/10/10 07:52:02;;;;;;;39.00;23.42;;;15.80;99.90;;;;;;5072971;28;20174;-65
2023/10/10 07:54:43;;;;;;;42.47;25.08;;;15.80;99.90;;;;;;5073354;28;20067;-66
2023/10/10 07:57:17;;;;;;;45.15;26.50;;;15.90;99.90;;;;;;5075217;28;20086;-66
2023/10/10 07:59:44;;;;;;;46.63;28.60;;;15.90;99.90;;;;;;5059151;28;20130;-66
2023/10/10 08:02:24;;;;;;;52.65;29.48;;;16.00;99.90;;;;;;5067334;28;20907;-65
2023/10/10 08:04:51;;;;;;;50.03;28.85;;;16.00;99.90;;;;;;5069234;28;20048;-66
2023/10/10 08:07:20;;;;;;;47.55;29.40;;;16.00;99.90;;;;;;5101118;27;20135;-66
2023/10/10 08:09:48;;;;;;;50.97;30.02;;;16.10;99.90;;;;;;5069283;28;20090;-66
2023/10/10 08:12:23;;;;;;;58.78;32.25;;;16.10;99.90;;;;;;5081815;28;20444;-66
2023/10/10 08:14:49;;;;;;;48.88;29.55;;;16.20;99.90;;;;;;5077111;28;20040;-66
2023/10/10 08:17:25;;;;;;;52.92;31.50;;;16.20;99.90;;;;;;5066373;28;20045;-66
2023/10/10 08:19:51;;;;;;;52.35;31.50;;;16.20;99.90;;;;;;5070852;28;20059;-65
2023/10/10 08:22:19;;;;;;;51.70;32.53;;;16.30;99.90;;;;;;5078250;28;20046;-66
2023/10/10 08:24:45;;;;;;;50.05;30.77;;;16.30;99.90;;;;;;5076477;28;20106;-66
2023/10/10 08:27:12;;;;;;;50.50;31.35;;;16.30;99.90;;;;;;5054379;28;20413;-66
2023/10/10 08:29:38;;;;;;;49.83;31.15;;;16.30;99.90;;;;;;5067555;28;20728;-66
2023/10/10 08:32:05;;;;;;;48.10;30.33;;;16.40;99.90;;;;;;5073950;28;20043;-67
2023/10/10 08:34:31;;;;;;;46.70;30.25;;;16.40;99.90;;;;;;5101144;27;20058;-67
2023/10/10 08:37:03;;;;;;;48.97;29.75;;;16.40;99.90;;;;;;5068663;28;20043;-67
2023/10/10 08:39:35;;;;;;;44.55;28.90;;;16.50;99.90;;;;;;5071219;28;20565;-67
2023/10/10 08:42:05;;;;;;;42.85;29.08;;;16.50;99.90;;;;;;5099488;27;20509;-67
2023/10/10 08:44:38;;;;;;;50.43;30.23;;;16.50;99.90;;;;;;5069126;28;20044;-67
2023/10/10 08:47:07;;;;;;;47.05;30.10;;;16.50;99.90;;;;;;5072114;28;20298;-67
2023/10/10 08:49:33;;;;;;;41.25;29.05;;;16.60;99.90;;;;;;5084503;28;20036;-67
2023/10/10 08:52:03;;;;;;;46.38;28.25;;;16.60;99.90;;;;;;5067810;28;20051;-65
2023/10/10 08:54:29;;;;;;;40.38;27.42;;;16.70;99.90;;;;;;5049198;28;20077;-66
2023/10/10 08:57:10;;;;;;;41.90;29.17;;;16.70;99.90;;;;;;5054460;28;20131;-65
2023/10/10 08:59:42;;;;;;;44.25;28.90;;;16.80;99.90;;;;;;5070607;28;20055;-66
2023/10/10 09:02:17;;;;;;;47.33;29.75;;;16.80;99.90;;;;;;5051602;28;20049;-66
2023/10/10 09:04:44;;;;;;;45.95;30.48;;;16.80;99.90;;;;;;5064279;28;20063;-66
2023/10/10 09:07:19;;;;;;;48.63;31.48;;;16.90;99.90;;;;;;5069299;28;20066;-66
2023/10/10 09:09:54;;;;;;;48.38;30.98;;;16.90;99.90;;;;;;5066111;28;20092;-66
2023/10/10 09:12:20;;;;;;;48.28;32.70;;;16.90;99.90;;;;;;5104290;27;21209;-66
2023/10/10 09:14:50;;;;;;;47.53;32.10;;;16.90;99.90;;;;;;5065670;28;20064;-66
2023/10/10 09:17:40;;;;;;;53.17;33.22;;;17.00;99.90;;;;;;5069977;28;20062;-66
2023/10/10 09:20:20;;;;;;;48.00;31.40;;;17.00;99.90;;;;;;5069405;28;20037;-66
2023/10/10 09:22:51;;;;;;;45.50;31.17;;;17.00;99.90;;;;;;5064208;28;20052;-66
2023/10/10 09:25:44;;;;;;;49.92;30.80;;;17.00;99.90;;;;;;5071365;28;20354;-66
2023/10/10 09:28:16;;;;;;;53.50;32.40;;;17.10;99.90;;;;;;5069074;28;20044;-66
2023/10/10 09:31:12;;;;;;;59.15;32.28;;;17.10;99.90;;;;;;5071211;28;20087;-66
2023/10/10 09:33:45;;;;;;;53.35;32.28;;;17.10;99.90;;;;;;5066618;28;20048;-66
2023/10/10 09:36:19;;;;;;;53.13;32.63;;;17.20;99.90;;;;;;5099809;27;20048;-66
2023/10/10 09:38:47;;;;;;;59.17;34.08;;;17.20;99.90;;;;;;5068620;28;20365;-66
2023/10/10 09:41:26;;;;;;;51.33;31.20;;;17.20;99.90;;;;;;5100013;27;20513;-66
2023/10/10 09:47:13;;;;;;;50.72;31.52;;;17.30;99.90;;;;;;5054062;28;20068;-66
2023/10/10 09:49:44;;;;;;;54.67;31.67;;;17.40;99.90;;;;;;5055498;28;20052;-66
2023/10/10 10:03:55;;;;;;;53.25;31.67;;;17.50;99.90;;;;;;5060256;28;20389;-65
2023/10/10 10:06:37;;;;;;;47.72;29.33;;;17.60;99.90;;;;;;5053552;28;20074;-66
2023/10/10 10:09:09;;;;;;;46.28;29.83;;;17.60;99.90;;;;;;5058518;28;20040;-65
2023/10/10 10:11:56;;;;;;;51.33;29.33;;;17.70;99.90;;;;;;5058676;28;20146;-66
2023/10/10 10:14:47;;;;;;;50.05;29.27;;;17.70;99.90;;;;;;5055737;28;20089;-66
2023/10/10 10:17:24;;;;;;;49.38;29.80;;;17.70;99.90;;;;;;5053444;28;20543;-66
2023/10/10 10:19:50;;;;;;;46.08;28.90;;;17.80;99.90;;;;;;5055876;28;20052;-67
2023/10/10 10:22:17;;;;;;;47.45;27.92;;;17.80;99.90;;;;;;5059111;28;20048;-66
2023/10/10 10:24:45;;;;;;;53.53;30.40;;;17.90;99.90;;;;;;5037260;28;20052;-66
2023/10/10 10:28:00;;;;;;;45.25;28.58;;;17.90;99.90;;;;;;5058172;28;20066;-66
2023/10/10 10:32:47;;;;;;;47.53;27.67;;;18.10;99.90;;;;;;5059168;28;20060;-66
2023/10/10 10:35:23;;;;;;;43.22;27.13;;;18.10;99.90;;;;;;5058579;28;20054;-66
2023/10/10 10:37:59;;;;;;;44.65;27.60;;;18.20;99.90;;;;;;5057038;28;20473;-66
2023/10/10 10:43:14;;;;;;;41.58;25.48;;;18.20;99.90;;;;;;5060031;28;20113;-66
2023/10/10 10:46:07;;;;;;;45.22;24.77;;;18.30;99.90;;;;;;5056531;28;20067;-65
2023/10/10 10:48:35;;;;;;;42.58;25.92;;;18.30;99.90;;;;;;5043196;28;20098;-66
2023/10/10 10:51:22;;;;;;;42.08;25.15;;;18.40;99.90;;;;;;5058347;28;20910;-66
2023/10/10 10:53:58;;;;;;;41.08;25.52;;;18.40;99.90;;;;;;5055415;28;20809;-65
2023/10/10 10:59:12;;;;;;;39.78;24.30;;;18.50;99.90;;;;;;5059301;28;20062;-65
2023/10/10 11:02:15;;;;;;;39.17;24.85;;;18.50;99.90;;;;;;5056574;28;20503;-66
2023/10/10 11:04:49;;;;;;;38.50;25.13;;;18.50;99.90;;;;;;5058024;28;20059;-66
2023/10/10 11:07:27;;;;;;;41.85;26.17;;;18.50;99.90;;;;;;5059557;28;20040;-66
2023/10/10 11:09:54;;;;;;;37.38;24.17;;;18.40;99.90;;;;;;5063250;28;20048;-65
2023/10/10 11:12:21;;;;;;;45.53;26.48;;;18.50;99.90;;;;;;5061994;28;20591;-68
2023/10/10 11:14:49;;;;;;;39.17;24.92;;;18.50;99.90;;;;;;5054254;28;20063;-69
2023/10/10 11:17:18;;;;;;;40.75;24.20;;;18.50;99.90;;;;;;5055802;28;20055;-69
2023/10/10 11:19:48;;;;;;;40.65;24.52;;;18.50;99.90;;;;;;5052266;28;20048;-69
2023/10/10 11:25:11;;;;;;;39.65;24.08;;;18.50;99.90;;;;;;5054998;28;20098;-70
2023/10/10 11:27:48;;;;;;;40.85;24.58;;;18.60;99.90;;;;;;5088353;27;20052;-68
2023/10/10 11:30:24;;;;;;;40.58;25.20;;;18.70;99.90;;;;;;5059636;28;20052;-69
2023/10/10 11:33:17;;;;;;;38.25;24.45;;;18.60;99.90;;;;;;5058276;28;20664;-68
2023/10/10 11:36:01;;;;;;;39.25;23.92;;;18.70;99.90;;;;;;5057526;28;20059;-69
2023/10/10 11:38:36;;;;;;;41.67;23.17;;;18.70;99.90;;;;;;5058883;28;20044;-68
2023/10/10 11:41:08;;;;;;;40.58;24.00;;;18.70;99.90;;;;;;5057275;28;20070;-69
2023/10/10 11:43:37;;;;;;;39.58;24.10;;;18.80;99.90;;;;;;5062597;28;20789;-68
2023/10/10 11:46:03;;;;;;;48.67;25.88;;;18.80;99.90;;;;;;5071036;28;20070;-68
2023/10/10 11:48:43;;;;;;;37.53;22.63;;;18.80;99.90;;;;;;5064303;28;20036;-69
2023/10/10 11:51:11;;;;;;;38.58;22.70;;;18.90;99.90;;;;;;5074710;28;20044;-69
2023/10/10 11:53:37;;;;;;;36.60;22.25;;;18.90;99.90;;;;;;5065779;28;20060;-69
2023/10/10 11:56:07;;;;;;;36.20;22.45;;;19.00;99.90;;;;;;5066516;28;20044;-69
2023/10/10 11:58:35;;;;;;;32.58;22.33;;;19.10;99.90;;;;;;5067440;28;20036;-69
2023/10/10 12:01:05;;;;;;;33.08;21.85;;;19.10;99.90;;;;;;5063454;28;20630;-70
2023/10/10 12:06:14;;;;;;;35.83;21.23;;;19.20;99.90;;;;;;5098749;27;20058;-70
2023/10/10 12:08:48;;;;;;;33.50;19.92;;;19.30;99.90;;;;;;5069817;28;20114;-70
2023/10/10 12:11:20;;;;;;;30.52;17.85;;;19.30;99.90;;;;;;5074003;28;20044;-70
2023/10/10 12:13:50;;;;;;;23.90;16.60;;;19.40;99.90;;;;;;5070861;28;20048;-69
2023/10/10 12:16:17;;;;;;;31.58;18.33;;;19.50;99.90;;;;;;5069118;28;20119;-70
2023/10/10 12:18:49;;;;;;;30.60;18.88;;;19.50;99.90;;;;;;5067777;28;20048;-70
2023/10/10 12:21:23;;;;;;;32.83;18.15;;;19.50;99.90;;;;;;5054937;28;20618;-69
2023/10/10 12:23:50;;;;;;;27.73;16.58;;;19.50;99.90;;;;;;5061992;28;20583;-69
2023/10/10 12:26:18;;;;;;;27.50;16.73;;;19.50;99.90;;;;;;5063246;28;20127;-69
2023/10/10 12:28:46;;;;;;;29.77;17.63;;;19.60;99.90;;;;;;5069667;28;20870;-69
2023/10/10 12:31:18;;;;;;;28.58;18.13;;;19.60;99.90;;;;;;5070818;28;20055;-69
2023/10/10 12:33:53;;;;;;;32.78;18.05;;;19.60;99.90;;;;;;5067994;28;20145;-69
2023/10/10 12:36:22;;;;;;;31.17;18.13;;;19.60;99.90;;;;;;5079899;28;20071;-68
2023/10/10 12:38:48;;;;;;;31.83;18.77;;;19.60;99.90;;;;;;5069264;28;20055;-69
2023/10/10 12:41:20;;;;;;;31.90;18.92;;;19.60;99.90;;;;;;5063500;28;20419;-69
2023/10/10 12:43:49;;;;;;;30.80;18.15;;;19.60;99.90;;;;;;5067293;28;20147;-69
2023/10/10 12:46:20;;;;;;;30.48;17.27;;;19.60;99.90;;;;;;5066944;28;20051;-68
2023/10/10 12:48:51;;;;;;;34.17;18.70;;;19.60;99.90;;;;;;5064486;28;20052;-68
2023/10/10 12:51:17;;;;;;;29.67;18.92;;;19.60;99.90;;;;;;5065448;28;20101;-68
2023/10/10 12:53:44;;;;;;;29.00;17.58;;;19.60;99.90;;;;;;5051708;28;20127;-68
2023/10/10 12:56:20;;;;;;;28.63;17.55;;;19.60;99.90;;;;;;5049523;28;20125;-68
2023/10/10 12:59:00;;;;;;;31.17;18.17;;;19.60;99.90;;;;;;5054251;28;20063;-69
2023/10/10 13:01:27;;;;;;;29.63;18.55;;;19.60;99.90;;;;;;5062688;28;20123;-69
2023/10/10 13:03:52;;;;;;;30.63;18.58;;;19.60;99.90;;;;;;5062327;28;20043;-72
2023/10/10 13:06:22;;;;;;;30.23;17.30;;;19.60;99.90;;;;;;5055916;28;20442;-69
2023/10/10 13:08:49;;;;;;;30.50;18.05;;;19.60;99.90;;;;;;5064302;28;20686;-70
2023/10/10 13:11:16;;;;;;;32.63;17.80;;;19.60;99.90;;;;;;5068306;28;20382;-70
2023/10/10 13:13:59;;;;;;;29.92;17.73;;;19.60;99.90;;;;;;5058925;28;20097;-70
2023/10/10 13:16:52;;;;;;;28.45;17.95;;;19.60;99.90;;;;;;5068963;28;20043;-69
2023/10/10 13:19:14;;;;;;;30.98;16.42;;;19.60;99.90;;;;;;5060423;28;20429;-70
2023/10/10 13:21:42;;;;;;;34.28;18.55;;;19.60;99.90;;;;;;5063845;28;20161;-70
2023/10/10 13:24:15;;;;;;;31.20;17.65;;;19.60;99.90;;;;;;5067903;28;20563;-69
2023/10/10 13:26:44;;;;;;;30.50;17.15;;;19.60;99.90;;;;;;5062830;28;20040;-70
2023/10/10 13:29:10;;;;;;;28.13;16.40;;;19.60;99.90;;;;;;5091053;28;20097;-69
2023/10/10 13:31:41;;;;;;;27.58;18.42;;;19.60;99.90;;;;;;5048085;28;20059;-70
2023/10/10 13:34:06;;;;;;;26.65;17.05;;;19.60;99.90;;;;;;5074248;28;20144;-70
2023/10/10 13:36:32;;;;;;;29.55;16.65;;;19.60;99.90;;;;;;5093279;27;20658;-70
2023/10/10 13:39:05;;;;;;;34.00;17.58;;;19.60;99.90;;;;;;5061486;28;21077;-67
2023/10/10 13:41:35;;;;;;;28.15;17.60;;;19.60;99.90;;;;;;5093962;27;20052;-67
2023/10/10 13:44:03;;;;;;;30.20;17.83;;;19.60;99.90;;;;;;5060425;28;20055;-68
2023/10/10 13:46:34;;;;;;;28.17;17.05;;;19.60;99.90;;;;;;5101367;27;20074;-68
2023/10/10 13:49:03;;;;;;;27.75;17.02;;;19.60;99.90;;;;;;5053567;28;20049;-68
2023/10/10 13:51:39;;;;;;;25.90;17.23;;;19.60;99.90;;;;;;5071025;28;20562;-69
2023/10/10 13:54:05;;;;;;;30.80;19.33;;;19.70;99.90;;;;;;5072767;28;20170;-69
2023/10/10 13:56:31;;;;;;;32.15;19.20;;;19.70;99.90;;;;;;5096777;27;20045;-69
2023/10/10 13:58:57;;;;;;;33.25;19.02;;;19.70;99.90;;;;;;5068875;28;20826;-69
2023/10/10 14:04:13;;;;;;;29.73;18.98;;;19.70;99.90;;;;;;5068329;28;20044;-69
2023/10/10 14:06:45;;;;;;;35.72;20.45;;;19.70;99.90;;;;;;5079735;28;20039;-68
2023/10/10 14:09:12;;;;;;;38.30;21.73;;;19.70;99.90;;;;;;5067241;28;20110;-68
2023/10/10 14:11:38;;;;;;;37.83;23.52;;;19.70;99.90;;;;;;5063544;28;21746;-68
2023/10/10 14:14:06;;;;;;;41.60;21.60;;;19.70;99.90;;;;;;5044117;28;20382;-69
2023/10/10 14:16:32;;;;;;;36.58;21.45;;;19.70;99.90;;;;;;5064551;28;20266;-69
2023/10/10 14:19:01;;;;;;;33.58;22.08;;;19.70;99.90;;;;;;5065162;28;20101;-70
2023/10/10 14:21:27;;;;;;;37.75;22.83;;;19.70;99.90;;;;;;5068917;28;20073;-69
2023/10/10 14:24:08;;;;;;;36.33;20.52;;;19.70;99.90;;;;;;5057300;28;20045;-68
2023/10/10 14:26:37;;;;;;;34.05;21.50;;;19.70;99.90;;;;;;5067758;28;20047;-69
2023/10/10 14:29:06;;;;;;;38.78;22.60;;;19.70;99.90;;;;;;5057394;28;20055;-68
2023/10/10 14:31:34;;;;;;;37.30;22.20;;;19.70;99.90;;;;;;5070911;28;20048;-68
2023/10/10 14:34:02;;;;;;;33.83;21.60;;;19.60;99.90;;;;;;5094347;27;20068;-68
2023/10/10 14:36:33;;;;;;;35.67;22.30;;;19.70;99.90;;;;;;5068498;28;20095;-69
2023/10/10 14:38:58;;;;;;;35.08;22.10;;;19.60;99.90;;;;;;5052110;28;20816;-68
2023/10/10 14:41:32;;;;;;;33.40;21.38;;;19.60;99.90;;;;;;5073926;28;20047;-68
2023/10/10 14:44:00;;;;;;;35.28;22.08;;;19.60;99.90;;;;;;5066197;28;20059;-68
2023/10/10 14:46:31;;;;;;;30.85;21.02;;;19.60;99.90;;;;;;5072215;28;20119;-68
2023/10/10 14:49:05;;;;;;;34.97;20.92;;;19.60;99.90;;;;;;5071826;28;20044;-69
2023/10/10 14:51:35;;;;;;;30.20;20.02;;;19.60;99.90;;;;;;5065067;28;20083;-69
2023/10/10 14:54:08;;;;;;;33.88;21.83;;;19.60;99.90;;;;;;5062761;28;20097;-69
2023/10/10 14:56:49;;;;;;;29.60;18.65;;;19.60;99.90;;;;;;5098175;27;20135;-69
2023/10/10 14:59:20;;;;;;;;;;;19.60;99.90;;;;;;5068227;28;20056;-68
2023/10/10 15:01:47;;;;;;;38.83;20.55;;;19.60;99.90;;;;;;5093721;27;19935;-68
2023/10/10 15:04:17;;;;;;;35.65;20.35;;;19.60;99.90;;;;;;5062201;28;20048;-68
2023/10/10 15:06:44;;;;;;;29.63;18.73;;;19.60;99.90;;;;;;5094029;27;20079;-68
2023/10/10 15:09:13;;;;;;;35.80;20.08;;;19.60;99.90;;;;;;5077339;28;20052;-68
2023/10/10 15:11:41;;;;;;;30.38;19.13;;;19.60;99.90;;;;;;5067576;28;20036;-68
2023/10/10 15:14:09;;;;;;;33.13;19.73;;;19.60;99.90;;;;;;5068553;28;20041;-68
2023/10/10 15:16:36;;;;;;;28.60;19.27;;;19.50;99.90;;;;;;5098810;27;20052;-68
2023/10/10 15:19:07;;;;;;;34.40;20.45;;;19.60;99.90;;;;;;5067934;28;20168;-68
2023/10/10 15:21:36;;;;;;;36.30;21.50;;;19.60;99.90;;;;;;5064814;28;20044;-68
2023/10/10 15:24:03;;;;;;;32.08;20.58;;;19.50;99.90;;;;;;5066620;28;20040;-69
2023/10/10 15:26:30;;;;;;;35.63;19.10;;;19.50;99.90;;;;;;5071292;28;20036;-68
2023/10/10 15:28:56;;;;;;;31.30;20.15;;;19.50;99.90;;;;;;5065923;28;20052;-69
2023/10/10 15:31:27;;;;;;;33.55;19.77;;;19.50;99.90;;;;;;5068779;28;20036;-69
2023/10/10 15:33:54;;;;;;;28.38;18.63;;;19.50;99.90;;;;;;5064291;28;20048;-68
2023/10/10 15:36:20;;;;;;;28.75;18.45;;;19.40;99.90;;;;;;5062953;28;20051;-69